createdAt,value
2017-12-14T00:00:01.999Z,98260.72
2017-12-14T00:02:30.305Z,98257.89
2017-12-14T00:04:58.559Z,98245.59
2017-12-14T00:07:27.039Z,98248.59
2017-12-14T00:09:55.318Z,98235.80
2017-12-14T00:12:23.670Z,98237.97
2017-12-14T00:14:52.810Z,98237.06
2017-12-14T00:17:21.106Z,98219.73
2017-12-14T00:19:49.420Z,98224.16
2017-12-14T00:22:18.550Z,98219.82
2017-12-14T00:24:46.190Z,98216.33
2017-12-14T00:27:14.510Z,98203.39
2017-12-14T00:29:43.185Z,98199.55
2017-12-14T00:32:11.510Z,98200.81
2017-12-14T00:34:40.574Z,98201.38
2017-12-14T00:37:08.897Z,98187.19
2017-12-14T00:39:37.977Z,98183.96
2017-12-14T00:42:06.290Z,98181.25
2017-12-14T00:44:34.633Z,98179.66
2017-12-14T00:47:03.724Z,98170.66
2017-12-14T00:49:32.034Z,98172.68
2017-12-14T00:52:00.579Z,98164.94
2017-12-14T00:54:28.869Z,98172.34
2017-12-14T00:56:57.173Z,98160.59
2017-12-14T00:59:25.498Z,98152.58
2017-12-14T01:01:53.787Z,98162.77
2017-12-14T01:04:22.077Z,98153.22
2017-12-14T01:06:50.409Z,98151.38
2017-12-14T01:09:18.803Z,98135.80
2017-12-14T01:11:47.164Z,98140.30
2017-12-14T01:14:15.816Z,98136.13
2017-12-14T01:16:44.164Z,98131.75
2017-12-14T01:19:12.456Z,98122.75
2017-12-14T01:21:40.793Z,98124.91
2017-12-14T01:24:09.089Z,98128.42
2017-12-14T01:26:37.407Z,98121.02
2017-12-14T01:29:06.495Z,98113.35
2017-12-14T01:31:35.598Z,98116.58
2017-12-14T01:34:04.689Z,98112.70
2017-12-14T01:36:34.017Z,98112.70
2017-12-14T01:39:02.337Z,98119.11
2017-12-14T01:41:30.650Z,98115.09
2017-12-14T01:43:59.725Z,98114.00
2017-12-14T01:46:28.043Z,98115.12
2017-12-14T01:48:56.354Z,98112.41
2017-12-14T01:51:24.675Z,98125.02
2017-12-14T01:53:53.768Z,98124.33
2017-12-14T01:56:22.816Z,98124.50
2017-12-14T01:58:51.207Z,98140.95
2017-12-14T02:01:19.534Z,98136.17
2017-12-14T02:03:47.833Z,98143.16
2017-12-14T02:06:16.150Z,98154.71
2017-12-14T02:08:51.098Z,98158.45
2017-12-14T02:11:19.438Z,98152.20
2017-12-14T02:13:47.741Z,98151.70
2017-12-14T02:16:16.818Z,98151.72
2017-12-14T02:18:45.399Z,98155.64
2017-12-14T02:21:13.733Z,98144.65
2017-12-14T02:23:42.048Z,98148.48
2017-12-14T02:26:10.376Z,98154.07
2017-12-14T02:28:38.663Z,98140.50
2017-12-14T02:31:07.717Z,98141.21
2017-12-14T02:33:36.103Z,98135.20
2017-12-14T02:36:04.399Z,98136.10
2017-12-14T02:38:32.729Z,98143.48
2017-12-14T02:41:01.239Z,98162.55
2017-12-14T02:43:29.547Z,98163.72
2017-12-14T02:45:58.642Z,98178.42
2017-12-14T02:48:27.722Z,98170.11
2017-12-14T02:50:56.055Z,98190.02
2017-12-14T02:53:24.369Z,98178.29
2017-12-14T02:55:52.710Z,98183.78
2017-12-14T02:58:21.749Z,98188.63
2017-12-14T03:00:50.129Z,98187.31
2017-12-14T03:03:18.822Z,98177.66
2017-12-14T03:05:47.262Z,98179.08
2017-12-14T03:08:15.635Z,98196.11
2017-12-14T03:10:44.166Z,98184.59
2017-12-14T03:13:12.641Z,98186.11
2017-12-14T03:15:40.985Z,98190.08
2017-12-14T03:18:10.202Z,98205.90
2017-12-14T03:20:38.700Z,98210.70
2017-12-14T03:23:07.900Z,98221.95
2017-12-14T03:25:37.303Z,98226.17
2017-12-14T03:28:05.683Z,98235.23
2017-12-14T03:30:34.150Z,98245.48
2017-12-14T03:33:02.647Z,98248.41
2017-12-14T03:35:32.364Z,98264.27
2017-12-14T03:38:00.811Z,98258.78
2017-12-14T03:40:29.217Z,98253.66
2017-12-14T03:42:57.666Z,98259.19
2017-12-14T03:45:26.133Z,98262.47
2017-12-14T03:48:00.872Z,98247.36
2017-12-14T03:50:29.391Z,98264.66
2017-12-14T03:52:57.854Z,98272.50
2017-12-14T03:55:38.180Z,98265.17
2017-12-14T03:58:06.623Z,98280.31
2017-12-14T04:00:35.130Z,98295.50
2017-12-14T04:03:04.199Z,98296.44
2017-12-14T04:05:32.553Z,98298.88
2017-12-14T04:08:00.851Z,98314.01
2017-12-14T04:10:29.259Z,98322.23
2017-12-14T04:12:57.591Z,98315.55
2017-12-14T04:15:25.908Z,98306.10
2017-12-14T04:17:54.298Z,98302.13
2017-12-14T04:20:22.631Z,98303.51
2017-12-14T04:22:50.946Z,98300.16
2017-12-14T04:25:20.826Z,98311.55
2017-12-14T04:27:50.140Z,98310.54
2017-12-14T04:30:18.639Z,98310.15
2017-12-14T04:32:47.961Z,98302.46
2017-12-14T04:35:16.401Z,98318.44
2017-12-14T04:37:44.891Z,98310.13
2017-12-14T04:40:13.471Z,98310.11
2017-12-14T04:42:41.900Z,98314.38
2017-12-14T04:45:10.331Z,98305.73
2017-12-14T04:47:40.040Z,98307.17
2017-12-14T04:50:08.396Z,98313.09
2017-12-14T04:52:36.799Z,98316.91
2017-12-14T04:55:07.850Z,98316.55
2017-12-14T04:57:36.985Z,98334.84
2017-12-14T05:00:05.361Z,98330.23
2017-12-14T05:02:33.899Z,98337.14
2017-12-14T05:05:02.321Z,98344.08
2017-12-14T05:07:30.690Z,98345.73
2017-12-14T05:09:59.453Z,98349.42
2017-12-14T05:12:27.935Z,98359.34
2017-12-14T05:14:56.823Z,98360.27
2017-12-14T05:17:25.388Z,98362.91
2017-12-14T05:19:53.887Z,98366.10
2017-12-14T05:22:22.351Z,98366.09
2017-12-14T05:24:50.786Z,98378.41
2017-12-14T05:27:19.242Z,98360.52
2017-12-14T05:29:48.546Z,98360.83
2017-12-14T05:32:17.936Z,98364.02
2017-12-14T05:34:46.321Z,98377.13
2017-12-14T05:37:14.775Z,98372.72
2017-12-14T05:39:43.249Z,98378.82
2017-12-14T05:42:11.765Z,98382.56
2017-12-14T05:44:40.218Z,98382.20
2017-12-14T05:47:08.829Z,98392.30
2017-12-14T05:49:37.414Z,98396.45
2017-12-14T05:52:05.891Z,98397.23
2017-12-14T05:54:34.789Z,98404.81
2017-12-14T05:57:03.960Z,98415.27
2017-12-14T05:59:32.400Z,98421.86
2017-12-14T06:02:00.955Z,98415.93
2017-12-14T06:04:29.503Z,98416.30
2017-12-14T06:06:58.022Z,98406.41
2017-12-14T06:09:26.705Z,98411.48
2017-12-14T06:11:55.198Z,98406.41
2017-12-14T06:14:24.485Z,98407.69
2017-12-14T06:16:53.764Z,98407.34
2017-12-14T06:19:22.137Z,98412.83
2017-12-14T06:21:50.558Z,98417.33
2017-12-14T06:24:19.843Z,98411.38
2017-12-14T06:26:48.538Z,98427.69
2017-12-14T06:29:17.237Z,98420.98
2017-12-14T06:31:46.619Z,98423.08
2017-12-14T06:34:14.951Z,98420.03
2017-12-14T06:36:43.303Z,98430.19
2017-12-14T06:39:12.698Z,98420.89
2017-12-14T06:41:41.011Z,98423.37
2017-12-14T06:44:09.334Z,98424.21
2017-12-14T06:46:37.667Z,98440.20
2017-12-14T06:49:05.995Z,98427.83
2017-12-14T06:51:34.327Z,98443.02
2017-12-14T06:54:02.687Z,98447.69
2017-12-14T06:56:31.041Z,98432.47
2017-12-14T06:59:00.114Z,98440.66
2017-12-14T07:01:28.576Z,98439.70
2017-12-14T07:03:56.994Z,98433.78
2017-12-14T07:06:25.336Z,98427.95
2017-12-14T07:08:53.684Z,98438.92
2017-12-14T07:11:21.989Z,98444.75
2017-12-14T07:13:50.292Z,98439.27
2017-12-14T07:16:18.640Z,98445.64
2017-12-14T07:18:46.967Z,98451.43
2017-12-14T07:21:15.301Z,98443.45
2017-12-14T07:23:43.912Z,98444.36
2017-12-14T07:26:12.269Z,98451.17
2017-12-14T07:28:40.595Z,98448.68
2017-12-14T07:31:09.701Z,98452.47
2017-12-14T07:33:43.649Z,98439.47
2017-12-14T07:36:11.989Z,98450.27
2017-12-14T07:38:41.062Z,98452.08
2017-12-14T07:41:09.407Z,98456.17
2017-12-14T07:43:38.141Z,98451.52
2017-12-14T07:46:24.781Z,98465.60
2017-12-14T07:49:10.586Z,98457.98
2017-12-14T07:51:38.923Z,98476.50
2017-12-14T07:54:08.066Z,98476.63
2017-12-14T07:56:36.519Z,98484.09
2017-12-14T07:59:04.871Z,98482.34
2017-12-14T08:01:33.209Z,98490.42
2017-12-14T08:04:01.858Z,98489.88
2017-12-14T08:06:30.205Z,98497.01
2017-12-14T08:08:58.533Z,98499.92
2017-12-14T08:11:26.901Z,98507.85
2017-12-14T08:13:55.262Z,98518.12
2017-12-14T08:16:24.362Z,98516.88
2017-12-14T08:18:53.465Z,98528.49
2017-12-14T08:21:21.774Z,98529.73
2017-12-14T08:23:50.080Z,98528.68
2017-12-14T08:26:18.714Z,98535.02
2017-12-14T08:28:47.374Z,98543.98
2017-12-14T08:31:16.451Z,98543.02
2017-12-14T08:33:44.827Z,98549.95
2017-12-14T08:36:26.831Z,98558.80
2017-12-14T08:38:55.191Z,98549.48
2017-12-14T08:41:23.505Z,98565.72
2017-12-14T08:43:52.577Z,98559.66
2017-12-14T08:46:21.127Z,98562.25
2017-12-14T08:48:49.464Z,98572.66
2017-12-14T08:51:17.809Z,98571.53
2017-12-14T08:53:46.231Z,98581.23
2017-12-14T08:56:14.560Z,98577.61
2017-12-14T08:58:42.888Z,98580.53
2017-12-14T09:01:12.043Z,98587.57
2017-12-14T09:03:40.352Z,98593.05
2017-12-14T09:06:08.700Z,98597.05
2017-12-14T09:08:37.403Z,98599.89
2017-12-14T09:11:05.770Z,98602.80
2017-12-14T09:13:34.061Z,98604.03
2017-12-14T09:16:02.415Z,98604.31
2017-12-14T09:18:30.762Z,98613.78
2017-12-14T09:20:59.094Z,98617.47
2017-12-14T09:23:27.452Z,98626.84
2017-12-14T09:25:55.786Z,98627.42
2017-12-14T09:28:24.093Z,98628.17
2017-12-14T09:30:52.494Z,98628.77
2017-12-14T09:33:20.829Z,98649.55
2017-12-14T09:35:49.223Z,98645.71
2017-12-14T09:38:17.561Z,98651.94
2017-12-14T09:40:45.883Z,98650.61
2017-12-14T09:43:14.201Z,98654.85
2017-12-14T09:45:42.571Z,98655.05
2017-12-14T09:48:10.890Z,98671.17
2017-12-14T09:50:39.188Z,98669.08
2017-12-14T09:53:07.928Z,98669.95
2017-12-14T09:55:36.272Z,98672.75
2017-12-14T09:58:05.377Z,98669.98
2017-12-14T10:00:33.764Z,98678.67
2017-12-14T10:03:02.158Z,98681.32
2017-12-14T10:05:30.504Z,98680.74
2017-12-14T10:07:58.867Z,98688.89
2017-12-14T10:10:27.179Z,98691.36
2017-12-14T10:12:55.489Z,98692.94
2017-12-14T10:15:24.903Z,98689.55
2017-12-14T10:17:53.194Z,98697.10
2017-12-14T10:20:21.523Z,98692.36
2017-12-14T10:22:50.003Z,98693.33
2017-12-14T10:25:18.331Z,98701.62
2017-12-14T10:27:46.634Z,98701.27
2017-12-14T10:30:14.983Z,98706.22
2017-12-14T10:32:43.266Z,98717.95
2017-12-14T10:35:11.582Z,98715.48
2017-12-14T10:37:40.287Z,98719.70
2017-12-14T10:40:08.650Z,98723.73
2017-12-14T10:42:36.985Z,98719.75
2017-12-14T10:45:05.300Z,98722.28
2017-12-14T10:47:33.605Z,98741.06
2017-12-14T10:50:01.928Z,98739.17
2017-12-14T10:52:30.337Z,98736.94
2017-12-14T10:55:01.190Z,98734.90
2017-12-14T10:57:29.498Z,98739.89
2017-12-14T10:59:59.279Z,98742.48
2017-12-14T11:02:27.617Z,98744.52
2017-12-14T11:04:55.926Z,98741.20
2017-12-14T11:07:24.283Z,98753.44
2017-12-14T11:09:52.595Z,98749.16
2017-12-14T11:12:20.910Z,98744.81
2017-12-14T11:14:49.238Z,98749.20
2017-12-14T11:17:17.570Z,98748.80
2017-12-14T11:19:45.859Z,98750.45
2017-12-14T11:22:14.702Z,98744.70
2017-12-14T11:24:42.996Z,98754.27
2017-12-14T11:27:11.333Z,98749.06
2017-12-14T11:29:39.685Z,98743.13
2017-12-14T11:32:07.994Z,98741.52
2017-12-14T11:34:36.315Z,98740.06
2017-12-14T11:37:05.440Z,98741.98
2017-12-14T11:39:33.737Z,98747.82
2017-12-14T11:42:02.035Z,98742.36
2017-12-14T11:44:30.562Z,98741.98
2017-12-14T11:46:58.910Z,98741.23
2017-12-14T11:49:27.259Z,98746.53
2017-12-14T11:51:55.835Z,98744.95
2017-12-14T11:54:24.150Z,98745.00
2017-12-14T11:56:52.450Z,98743.47
2017-12-14T11:59:21.539Z,98743.23
2017-12-14T12:01:49.878Z,98749.06
2017-12-14T12:04:18.204Z,98750.78
2017-12-14T12:06:47.781Z,98746.94
2017-12-14T12:09:16.115Z,98752.55
2017-12-14T12:11:44.442Z,98757.83
2017-12-14T12:14:13.578Z,98758.66
2017-12-14T12:16:41.926Z,98749.11
2017-12-14T12:19:10.408Z,98752.88
2017-12-14T12:21:39.959Z,98755.28
2017-12-14T12:24:08.306Z,98749.03
2017-12-14T12:26:37.435Z,98749.91
2017-12-14T12:29:05.850Z,98749.71
2017-12-14T12:31:34.196Z,98745.13
2017-12-14T12:34:02.513Z,98743.33
2017-12-14T12:36:30.846Z,98738.38
2017-12-14T12:38:59.162Z,98746.75
2017-12-14T12:41:27.468Z,98743.89
2017-12-14T12:43:56.571Z,98742.16
2017-12-14T12:46:25.698Z,98738.00
2017-12-14T12:48:54.044Z,98743.28
2017-12-14T12:51:22.985Z,98738.02
2017-12-14T12:53:52.092Z,98740.17
2017-12-14T12:56:20.432Z,98746.80
2017-12-14T12:58:48.790Z,98748.19
2017-12-14T13:01:17.138Z,98748.16
2017-12-14T13:03:45.501Z,98751.72
2017-12-14T13:06:13.896Z,98763.47
2017-12-14T13:08:42.331Z,98754.56
2017-12-14T13:11:10.677Z,98761.88
2017-12-14T13:13:40.105Z,98761.16
2017-12-14T13:16:08.409Z,98756.81
2017-12-14T13:18:36.737Z,98757.54
2017-12-14T13:21:05.101Z,98760.20
2017-12-14T13:23:35.144Z,98761.81
2017-12-14T13:26:04.256Z,98769.00
2017-12-14T13:28:32.705Z,98769.55
2017-12-14T13:31:01.830Z,98770.70
2017-12-14T13:33:30.171Z,98773.48
2017-12-14T13:35:58.695Z,98769.73
2017-12-14T13:38:27.028Z,98779.14
2017-12-14T13:40:55.350Z,98776.73
2017-12-14T13:43:23.950Z,98772.70
2017-12-14T13:45:52.911Z,98776.09
2017-12-14T13:48:22.820Z,98779.19
2017-12-14T13:50:52.840Z,98766.68
2017-12-14T13:53:21.187Z,98765.43
2017-12-14T13:55:49.530Z,98766.59
2017-12-14T13:58:18.119Z,98772.01
2017-12-14T14:00:46.475Z,98763.94
2017-12-14T14:03:15.605Z,98768.39
2017-12-14T14:05:43.979Z,98766.67
2017-12-14T14:08:12.472Z,98774.61
2017-12-14T14:10:41.012Z,98767.92
2017-12-14T14:13:10.146Z,98784.89
2017-12-14T14:15:38.510Z,98773.41
2017-12-14T14:18:06.843Z,98777.38
2017-12-14T14:20:35.438Z,98783.72
2017-12-14T14:23:03.746Z,98786.34
2017-12-14T14:25:32.082Z,98787.25
2017-12-14T14:28:00.457Z,98792.57
2017-12-14T14:30:29.079Z,98789.11
2017-12-14T14:32:57.396Z,98792.90
2017-12-14T14:35:25.730Z,98800.63
2017-12-14T14:37:54.018Z,98799.55
2017-12-14T14:40:22.387Z,98793.44
2017-12-14T14:42:51.998Z,98805.42
2017-12-14T14:45:20.340Z,98812.41
2017-12-14T14:47:48.691Z,98813.27
2017-12-14T14:50:17.026Z,98812.16
2017-12-14T14:52:45.342Z,98811.33
2017-12-14T14:55:13.626Z,98820.92
2017-12-14T14:57:42.003Z,98819.37
2017-12-14T15:00:10.354Z,98817.53
2017-12-14T15:02:38.654Z,98820.56
2017-12-14T15:05:07.304Z,98828.34
2017-12-14T15:07:35.635Z,98837.95
2017-12-14T15:10:03.955Z,98834.80
2017-12-14T15:12:33.077Z,98839.92
2017-12-14T15:15:01.392Z,98842.19
2017-12-14T15:17:29.720Z,98840.19
2017-12-14T15:19:58.083Z,98847.11
2017-12-14T15:22:27.205Z,98844.91
2017-12-14T15:24:55.523Z,98850.39
2017-12-14T15:27:24.104Z,98846.84
2017-12-14T15:29:52.432Z,98853.77
2017-12-14T15:32:21.817Z,98845.58
2017-12-14T15:34:50.184Z,98850.24
2017-12-14T15:37:38.214Z,98848.16
2017-12-14T15:40:06.623Z,98855.33
2017-12-14T15:42:35.714Z,98855.45
2017-12-14T15:45:04.022Z,98855.41
2017-12-14T15:47:32.674Z,98864.82
2017-12-14T15:50:01.040Z,98870.31
2017-12-14T15:52:29.364Z,98864.80
2017-12-14T15:54:57.739Z,98867.18
2017-12-14T15:57:26.050Z,98865.95
2017-12-14T15:59:54.383Z,98862.20
2017-12-14T16:02:22.756Z,98865.71
2017-12-14T16:04:51.853Z,98871.30
2017-12-14T16:07:20.942Z,98865.15
2017-12-14T16:09:50.257Z,98868.34
2017-12-14T16:12:19.349Z,98862.74
2017-12-14T16:14:48.421Z,98865.96
2017-12-14T16:17:16.820Z,98863.45
2017-12-14T16:19:45.161Z,98859.23
2017-12-14T16:22:13.493Z,98867.75
2017-12-14T16:24:41.870Z,98873.78
2017-12-14T16:27:10.194Z,98869.59
2017-12-14T16:29:58.556Z,98872.65
2017-12-14T16:32:27.121Z,98866.20
2017-12-14T16:34:55.425Z,98880.45
2017-12-14T16:37:23.832Z,98877.16
2017-12-14T16:39:52.898Z,98877.50
2017-12-14T16:42:21.222Z,98870.50
2017-12-14T16:44:50.250Z,98869.51
2017-12-14T16:47:18.602Z,98866.84
2017-12-14T16:49:46.944Z,98859.14
2017-12-14T16:52:15.715Z,98864.00
2017-12-14T16:54:44.073Z,98863.06
2017-12-14T16:57:12.414Z,98857.61
2017-12-14T16:59:40.740Z,98869.93
2017-12-14T17:02:09.047Z,98856.52
2017-12-14T17:04:38.154Z,98862.52
2017-12-14T17:07:07.295Z,98868.09
2017-12-14T17:09:35.598Z,98869.63
2017-12-14T17:12:03.944Z,98864.64
2017-12-14T17:14:32.525Z,98869.11
2017-12-14T17:17:00.841Z,98866.69
2017-12-14T17:19:29.153Z,98874.78
2017-12-14T17:21:58.267Z,98869.22
2017-12-14T17:24:26.604Z,98870.30
2017-12-14T17:26:55.715Z,98876.42
2017-12-14T17:29:24.846Z,98868.67
2017-12-14T17:31:53.189Z,98873.87
2017-12-14T17:34:21.551Z,98875.38
2017-12-14T17:36:50.146Z,98873.81
2017-12-14T17:39:18.519Z,98881.91
2017-12-14T17:41:46.914Z,98885.11
2017-12-14T17:44:15.357Z,98882.98
2017-12-14T17:46:43.740Z,98881.03
2017-12-14T17:49:12.087Z,98886.92
2017-12-14T17:51:40.488Z,98877.30
2017-12-14T17:54:09.570Z,98867.22
2017-12-14T17:56:37.902Z,98888.17
2017-12-14T17:59:07.221Z,98878.45
2017-12-14T18:01:35.596Z,98886.39
2017-12-14T18:04:03.957Z,98885.77
2017-12-14T18:06:33.083Z,98889.41
2017-12-14T18:09:01.410Z,98883.25
2017-12-14T18:11:29.750Z,98879.23
2017-12-14T18:13:58.081Z,98882.63
2017-12-14T18:16:26.399Z,98888.20
2017-12-14T18:18:54.737Z,98887.40
2017-12-14T18:23:57.829Z,98886.88
2017-12-14T18:26:26.231Z,98893.27
2017-12-14T18:28:55.311Z,98888.74
2017-12-14T18:31:23.643Z,98888.08
2017-12-14T18:33:52.002Z,98899.25
2017-12-14T18:36:20.346Z,98895.67
2017-12-14T18:38:48.704Z,98892.66
2017-12-14T18:41:17.698Z,98887.69
2017-12-14T18:46:27.610Z,98889.45
2017-12-14T18:48:56.682Z,98886.07
2017-12-14T18:51:25.063Z,98883.55
2017-12-14T18:53:53.425Z,98881.46
2017-12-14T18:56:21.866Z,98875.59
2017-12-14T18:58:50.299Z,98877.75
2017-12-14T19:01:19.288Z,98875.11
2017-12-14T19:03:47.706Z,98880.43
2017-12-14T19:06:16.281Z,98873.57
2017-12-14T19:08:44.660Z,98869.91
2017-12-14T19:11:13.763Z,98870.64
2017-12-14T19:13:42.905Z,98872.92
2017-12-14T19:16:11.221Z,98860.62
2017-12-14T19:18:39.523Z,98863.70
2017-12-14T19:21:08.672Z,98872.45
2017-12-14T19:23:37.143Z,98877.05
2017-12-14T19:26:05.458Z,98873.25
2017-12-14T19:28:33.890Z,98867.92
2017-12-14T19:31:02.277Z,98870.63
2017-12-14T19:33:30.606Z,98865.73
2017-12-14T19:35:59.682Z,98870.14
2017-12-14T19:38:28.033Z,98882.90
2017-12-14T19:40:56.394Z,98871.06
2017-12-14T19:43:24.718Z,98875.32
2017-12-14T19:45:54.094Z,98874.73
2017-12-14T19:48:22.456Z,98869.91
2017-12-14T19:50:50.778Z,98870.19
2017-12-14T19:53:19.148Z,98867.19
2017-12-14T19:55:47.504Z,98871.38
2017-12-14T19:58:15.869Z,98875.78
2017-12-14T20:00:44.253Z,98886.70
2017-12-14T20:03:12.622Z,98886.48
2017-12-14T20:05:40.986Z,98894.27
2017-12-14T20:08:09.430Z,98895.22
2017-12-14T20:10:37.737Z,98891.91
2017-12-14T20:13:06.046Z,98899.05
2017-12-14T20:15:34.422Z,98906.72
2017-12-14T20:18:02.760Z,98901.35
2017-12-14T20:20:31.116Z,98895.34
2017-12-14T20:22:59.497Z,98903.56
2017-12-14T20:25:27.830Z,98907.31
2017-12-14T20:27:56.178Z,98911.66
2017-12-14T20:30:25.567Z,98902.62
2017-12-14T20:32:53.926Z,98912.63
2017-12-14T20:35:22.325Z,98908.50
2017-12-14T20:37:51.019Z,98900.87
2017-12-14T20:40:19.945Z,98905.53
2017-12-14T20:42:48.491Z,98900.27
2017-12-14T20:45:16.983Z,98891.34
2017-12-14T20:47:46.095Z,98888.05
2017-12-14T20:50:14.448Z,98881.84
2017-12-14T20:52:43.102Z,98881.47
2017-12-14T20:55:11.444Z,98877.58
2017-12-14T20:57:39.764Z,98869.70
2017-12-14T21:00:08.133Z,98868.31
2017-12-14T21:02:36.534Z,98873.18
2017-12-14T21:05:04.961Z,98878.57
2017-12-14T21:07:33.289Z,98874.06
2017-12-14T21:10:01.609Z,98882.50
2017-12-14T21:12:30.717Z,98883.80
2017-12-14T21:14:59.289Z,98884.68
2017-12-14T21:17:28.395Z,98885.49
2017-12-14T21:19:56.753Z,98883.42
2017-12-14T21:22:25.900Z,98877.92
2017-12-14T21:24:54.302Z,98885.42
2017-12-14T21:27:22.623Z,98884.22
2017-12-14T21:29:51.023Z,98879.38
2017-12-14T21:32:19.372Z,98875.77
2017-12-14T21:34:48.478Z,98877.55
2017-12-14T21:37:17.752Z,98872.65
2017-12-14T21:39:46.070Z,98881.03
2017-12-14T21:42:14.431Z,98877.61
2017-12-14T21:44:43.561Z,98892.77
2017-12-14T21:47:11.937Z,98889.95
2017-12-14T21:49:40.299Z,98886.21
2017-12-14T21:52:08.663Z,98889.89
2017-12-14T21:54:37.789Z,98886.39
2017-12-14T21:57:06.231Z,98892.21
2017-12-14T21:59:35.588Z,98888.17
2017-12-14T22:02:03.998Z,98884.95
2017-12-14T22:04:32.341Z,98883.66
2017-12-14T22:07:00.860Z,98877.19
2017-12-14T22:09:29.341Z,98879.14
2017-12-14T22:11:57.825Z,98877.24
2017-12-14T22:14:26.304Z,98878.46
2017-12-14T22:16:54.795Z,98878.85
2017-12-14T22:19:23.290Z,98884.19
2017-12-14T22:21:52.779Z,98881.27
2017-12-14T22:24:21.268Z,98878.66
2017-12-14T22:26:49.729Z,98891.34
2017-12-14T22:29:18.149Z,98890.28
2017-12-14T22:31:47.419Z,98889.16
2017-12-14T22:34:16.023Z,98895.68
2017-12-14T22:36:44.385Z,98887.41
2017-12-14T22:39:12.889Z,98888.39
2017-12-14T22:41:42.051Z,98893.54
2017-12-14T22:44:10.877Z,98889.89
2017-12-14T22:46:40.102Z,98898.60
2017-12-14T22:49:08.544Z,98888.91
2017-12-14T22:51:37.027Z,98898.69
2017-12-14T22:54:05.508Z,98896.75
2017-12-14T22:56:34.807Z,98898.52
2017-12-14T22:59:03.231Z,98904.73
2017-12-14T23:01:31.764Z,98909.16
2017-12-14T23:04:00.245Z,98912.48
2017-12-14T23:06:28.777Z,98911.88
2017-12-14T23:08:57.208Z,98903.59
2017-12-14T23:11:25.670Z,98915.23
2017-12-14T23:13:54.178Z,98911.05
2017-12-14T23:16:22.632Z,98904.30
2017-12-14T23:18:51.142Z,98907.31
2017-12-14T23:21:19.615Z,98909.91
2017-12-14T23:23:48.101Z,98907.70
2017-12-14T23:26:16.639Z,98907.75
2017-12-14T23:28:45.727Z,98904.73
2017-12-14T23:31:14.236Z,98908.36
2017-12-14T23:33:43.349Z,98911.31
2017-12-14T23:36:11.832Z,98909.80
2017-12-14T23:38:40.321Z,98920.53
2017-12-14T23:41:08.721Z,98919.84
2017-12-14T23:43:38.002Z,98917.34
2017-12-14T23:46:06.481Z,98919.81
2017-12-14T23:48:34.865Z,98926.64
2017-12-14T23:51:03.638Z,98929.23
2017-12-14T23:53:32.128Z,98927.20
2017-12-14T23:56:00.614Z,98925.20
2017-12-14T23:58:29.096Z,98925.05
